createdAt,value
2017-12-10T00:00:44.596Z,2.20
2017-12-10T00:03:12.944Z,2.20
2017-12-10T00:05:41.304Z,2.25
2017-12-10T00:08:09.716Z,2.21
2017-12-10T00:10:38.064Z,2.23
2017-12-10T00:13:07.796Z,2.25
2017-12-10T00:15:36.152Z,2.23
2017-12-10T00:18:04.778Z,2.17
2017-12-10T00:20:33.600Z,2.16
2017-12-10T00:23:01.988Z,2.28
2017-12-10T00:25:30.349Z,2.19
2017-12-10T00:27:59.597Z,2.20
2017-12-10T00:30:27.961Z,2.20
2017-12-10T00:32:56.336Z,2.20
2017-12-10T00:35:24.703Z,2.09
2017-12-10T00:37:53.440Z,2.12
2017-12-10T00:40:22.188Z,2.10
2017-12-10T00:42:50.567Z,2.11
2017-12-10T00:45:19.688Z,2.09
2017-12-10T00:47:48.104Z,2.14
2017-12-10T00:50:17.239Z,2.14
2017-12-10T00:52:45.631Z,2.15
2017-12-10T00:55:14.759Z,2.11
2017-12-10T00:57:43.127Z,2.11
2017-12-10T01:00:11.471Z,2.13
2017-12-10T01:02:39.827Z,2.12
2017-12-10T01:05:09.732Z,2.20
2017-12-10T01:07:38.823Z,2.27
2017-12-10T01:10:07.959Z,2.19
2017-12-10T01:12:36.359Z,2.09
2017-12-10T01:15:04.731Z,2.12
2017-12-10T01:17:33.487Z,2.09
2017-12-10T01:20:01.872Z,2.12
2017-12-10T01:22:30.245Z,2.12
2017-12-10T01:24:58.591Z,2.08
2017-12-10T01:27:27.371Z,2.05
2017-12-10T01:29:56.459Z,2.06
2017-12-10T01:32:24.903Z,2.05
2017-12-10T01:34:53.299Z,2.00
2017-12-10T01:37:21.671Z,1.99
2017-12-10T01:39:50.000Z,2.03
2017-12-10T01:42:18.333Z,1.97
2017-12-10T01:44:46.715Z,1.94
2017-12-10T01:47:15.870Z,1.95
2017-12-10T01:49:44.330Z,1.98
2017-12-10T01:52:13.951Z,1.97
2017-12-10T01:54:43.218Z,2.05
2017-12-10T01:57:12.365Z,2.05
2017-12-10T01:59:41.495Z,1.96
2017-12-10T02:02:09.895Z,2.03
2017-12-10T02:04:39.523Z,1.99
2017-12-10T02:07:07.995Z,1.90
2017-12-10T02:09:36.775Z,1.90
2017-12-10T02:12:05.151Z,1.93
2017-12-10T02:14:35.135Z,1.89
2017-12-10T02:17:03.467Z,1.75
2017-12-10T02:19:31.829Z,1.61
2017-12-10T02:22:00.555Z,1.47
2017-12-10T02:24:29.737Z,1.40
2017-12-10T02:26:59.222Z,1.27
2017-12-10T02:29:27.550Z,1.15
2017-12-10T02:31:57.154Z,1.14
2017-12-10T02:34:25.534Z,1.01
2017-12-10T02:36:54.742Z,0.95
2017-12-10T02:39:23.115Z,0.89
2017-12-10T02:41:51.551Z,0.84
2017-12-10T02:44:19.950Z,0.71
2017-12-10T02:46:48.312Z,0.64
2017-12-10T02:49:16.770Z,0.62
2017-12-10T02:51:45.493Z,0.68
2017-12-10T02:54:13.842Z,0.66
2017-12-10T02:56:43.102Z,0.64
2017-12-10T02:59:11.441Z,0.56
2017-12-10T03:01:40.625Z,0.51
2017-12-10T03:04:09.807Z,0.51
2017-12-10T03:06:38.158Z,0.44
2017-12-10T03:09:06.514Z,0.31
2017-12-10T03:11:34.882Z,0.35
2017-12-10T03:14:03.255Z,0.36
2017-12-10T03:16:31.618Z,0.34
2017-12-10T03:18:59.954Z,0.43
2017-12-10T03:21:30.754Z,0.42
2017-12-10T03:23:59.114Z,0.40
2017-12-10T03:26:27.842Z,0.33
2017-12-10T03:28:56.594Z,0.36
2017-12-10T03:31:24.971Z,0.31
2017-12-10T03:33:54.101Z,0.26
2017-12-10T03:36:22.466Z,0.17
2017-12-10T03:38:51.226Z,0.19
2017-12-10T03:41:20.377Z,0.20
2017-12-10T03:43:49.486Z,0.23
2017-12-10T03:46:18.246Z,0.22
2017-12-10T03:48:46.621Z,0.24
2017-12-10T03:51:15.002Z,0.25
2017-12-10T03:53:43.386Z,0.26
2017-12-10T03:56:12.545Z,0.26
2017-12-10T03:58:40.870Z,0.20
2017-12-10T04:01:10.751Z,0.21
2017-12-10T04:03:39.101Z,0.14
2017-12-10T04:06:08.594Z,0.10
2017-12-10T04:08:36.973Z,0.13
2017-12-10T04:11:05.305Z,0.10
2017-12-10T04:13:33.722Z,0.09
2017-12-10T04:16:03.186Z,0.07
2017-12-10T04:18:31.510Z,0.06
2017-12-10T04:20:59.881Z,0.03
2017-12-10T04:23:28.642Z,-0.01
2017-12-10T04:25:58.562Z,-0.01
2017-12-10T04:28:27.878Z,-0.03
2017-12-10T04:30:56.219Z,-0.10
2017-12-10T04:33:24.588Z,-0.04
2017-12-10T04:35:52.934Z,-0.05
2017-12-10T04:38:21.278Z,-0.07
2017-12-10T04:40:50.415Z,-0.06
2017-12-10T04:43:18.799Z,-0.08
2017-12-10T04:45:47.169Z,-0.12
2017-12-10T04:48:15.565Z,-0.21
2017-12-10T04:50:44.293Z,-0.20
2017-12-10T04:53:13.041Z,-0.25
2017-12-10T04:55:41.429Z,-0.22
2017-12-10T04:58:09.773Z,-0.19
2017-12-10T05:00:39.313Z,-0.23
2017-12-10T05:03:07.690Z,-0.25
2017-12-10T05:05:36.085Z,-0.30
2017-12-10T05:08:05.221Z,-0.37
2017-12-10T05:10:33.681Z,-0.51
2017-12-10T05:13:02.085Z,-0.46
2017-12-10T05:15:30.845Z,-0.46
2017-12-10T05:17:59.774Z,-0.56
2017-12-10T05:20:28.120Z,-0.56
2017-12-10T05:22:56.501Z,-0.57
2017-12-10T05:25:24.900Z,-0.53
2017-12-10T05:27:53.265Z,-0.50
2017-12-10T05:30:22.037Z,-0.52
2017-12-10T05:32:50.376Z,-0.58
2017-12-10T05:35:19.809Z,-0.70
2017-12-10T05:37:48.981Z,-0.79
2017-12-10T05:40:18.084Z,-0.91
2017-12-10T05:42:46.480Z,-0.97
2017-12-10T05:45:15.602Z,-0.86
2017-12-10T05:47:43.937Z,-0.87
2017-12-10T05:50:12.343Z,-0.93
2017-12-10T05:52:40.697Z,-0.90
2017-12-10T05:55:10.440Z,-0.92
2017-12-10T05:57:38.929Z,-1.00
2017-12-10T06:00:07.765Z,-1.03
2017-12-10T06:02:36.540Z,-1.08
2017-12-10T06:05:05.732Z,-1.09
2017-12-10T06:07:34.121Z,-1.11
2017-12-10T06:10:02.561Z,-1.22
2017-12-10T06:12:30.965Z,-1.17
2017-12-10T06:14:59.722Z,-1.15
2017-12-10T06:17:28.097Z,-1.14
2017-12-10T06:19:56.469Z,-1.22
2017-12-10T06:22:25.929Z,-1.21
2017-12-10T06:24:54.304Z,-1.30
2017-12-10T06:27:22.704Z,-1.30
2017-12-10T06:29:52.582Z,-1.33
2017-12-10T06:32:21.362Z,-1.25
2017-12-10T06:34:50.152Z,-1.35
2017-12-10T06:37:18.529Z,-1.45
2017-12-10T06:39:47.273Z,-1.54
2017-12-10T06:42:16.384Z,-1.60
2017-12-10T06:44:46.055Z,-1.48
2017-12-10T06:47:15.788Z,-1.43
2017-12-10T06:49:44.120Z,-1.39
2017-12-10T06:52:12.484Z,-1.33
2017-12-10T06:54:40.849Z,-1.30
2017-12-10T06:57:09.320Z,-1.38
2017-12-10T06:59:38.092Z,-1.47
2017-12-10T07:02:06.448Z,-1.47
2017-12-10T07:04:36.032Z,-1.38
2017-12-10T07:07:05.417Z,-1.40
2017-12-10T07:09:34.227Z,-1.35
2017-12-10T07:12:02.617Z,-1.36
2017-12-10T07:14:30.989Z,-1.31
2017-12-10T07:16:59.755Z,-1.30
2017-12-10T07:19:28.112Z,-1.21
2017-12-10T07:21:56.492Z,-1.24
2017-12-10T07:24:25.252Z,-1.33
2017-12-10T07:26:54.445Z,-1.23
2017-12-10T07:29:23.180Z,-1.16
2017-12-10T07:31:51.540Z,-1.14
2017-12-10T07:34:20.700Z,-1.10
2017-12-10T07:36:49.818Z,-1.06
2017-12-10T07:39:18.224Z,-1.06
2017-12-10T07:41:46.640Z,-1.03
2017-12-10T07:44:14.996Z,-0.95
2017-12-10T07:46:43.380Z,-0.88
2017-12-10T07:49:11.752Z,-0.88
2017-12-10T07:51:40.900Z,-0.76
2017-12-10T07:54:09.652Z,-0.70
2017-12-10T07:56:38.800Z,-0.65
2017-12-10T07:59:07.196Z,-0.62
2017-12-10T08:01:36.020Z,-0.59
2017-12-10T08:04:05.563Z,-0.60
2017-12-10T08:06:33.915Z,-0.53
2017-12-10T08:09:03.447Z,-0.44
2017-12-10T08:11:31.835Z,-0.37
2017-12-10T08:14:00.223Z,-0.35
2017-12-10T08:16:28.612Z,-0.30
2017-12-10T08:18:56.992Z,-0.23
2017-12-10T08:21:25.385Z,-0.21
2017-12-10T08:23:54.135Z,-0.14
2017-12-10T08:26:22.531Z,-0.10
2017-12-10T08:28:51.999Z,-0.04
2017-12-10T08:31:33.145Z,-0.08
2017-12-10T08:34:02.905Z,-0.04
2017-12-10T08:36:32.672Z,0.02
2017-12-10T08:39:02.467Z,0.10
2017-12-10T08:41:32.491Z,0.10
2017-12-10T08:44:04.191Z,0.14
2017-12-10T08:46:37.019Z,0.12
2017-12-10T08:49:07.679Z,0.22
2017-12-10T08:51:37.431Z,0.25
2017-12-10T08:54:05.838Z,0.30
2017-12-10T08:56:34.599Z,0.33
2017-12-10T08:59:03.703Z,0.33
2017-12-10T09:01:32.970Z,0.38
2017-12-10T09:04:02.722Z,0.42
2017-12-10T09:06:31.196Z,0.43
2017-12-10T09:09:01.039Z,0.49
2017-12-10T09:11:30.803Z,0.50
2017-12-10T09:14:01.511Z,0.68
2017-12-10T09:16:33.603Z,0.62
2017-12-10T09:19:09.135Z,0.66
2017-12-10T09:21:40.309Z,0.65
2017-12-10T09:24:10.070Z,0.68
2017-12-10T09:26:40.399Z,0.74
2017-12-10T09:29:11.281Z,0.75
2017-12-10T09:31:42.150Z,0.77
2017-12-10T09:34:10.961Z,0.79
2017-12-10T09:36:39.331Z,0.82
2017-12-10T09:39:09.794Z,0.80
2017-12-10T09:41:38.201Z,0.92
2017-12-10T09:44:07.412Z,1.00
2017-12-10T09:46:35.836Z,1.02
2017-12-10T09:49:04.607Z,1.08
2017-12-10T09:51:33.331Z,1.24
2017-12-10T09:54:09.342Z,1.33
2017-12-10T09:56:38.143Z,1.52
2017-12-10T09:59:06.551Z,1.74
2017-12-10T10:01:36.155Z,2.05
2017-12-10T10:04:04.570Z,2.25
2017-12-10T10:06:32.939Z,2.39
2017-12-10T10:09:01.318Z,2.53
2017-12-10T10:11:31.276Z,2.57
2017-12-10T10:14:09.703Z,2.53
2017-12-10T10:16:39.615Z,2.41
2017-12-10T10:19:08.111Z,2.19
2017-12-10T10:21:36.511Z,2.19
2017-12-10T10:24:05.267Z,2.22
2017-12-10T10:26:33.667Z,2.08
2017-12-10T10:29:03.034Z,1.98
2017-12-10T10:31:31.818Z,2.03
2017-12-10T10:34:01.592Z,2.43
2017-12-10T10:36:29.954Z,2.63
2017-12-10T10:38:59.138Z,2.66
2017-12-10T10:41:28.699Z,2.78
2017-12-10T10:43:58.215Z,2.96
2017-12-10T10:46:27.730Z,2.98
2017-12-10T10:48:57.442Z,2.92
2017-12-10T10:51:26.698Z,2.79
2017-12-10T10:53:56.228Z,2.74
2017-12-10T10:56:26.122Z,2.64
2017-12-10T10:58:54.471Z,2.64
2017-12-10T11:01:23.631Z,2.59
2017-12-10T11:03:52.069Z,2.55
2017-12-10T11:06:21.207Z,2.63
2017-12-10T11:08:50.346Z,2.56
2017-12-10T11:11:19.158Z,2.53
2017-12-10T11:13:47.600Z,2.54
2017-12-10T11:16:16.028Z,2.68
2017-12-10T11:18:45.156Z,2.83
2017-12-10T11:21:13.554Z,2.90
2017-12-10T11:23:43.232Z,3.03
2017-12-10T11:26:12.314Z,3.12
2017-12-10T11:28:42.193Z,3.20
2017-12-10T11:31:11.292Z,3.23
2017-12-10T11:33:39.686Z,3.25
2017-12-10T11:36:10.382Z,3.16
2017-12-10T11:38:38.745Z,3.07
2017-12-10T11:41:07.102Z,2.86
2017-12-10T11:43:36.823Z,2.64
2017-12-10T11:46:05.210Z,2.53
2017-12-10T11:48:33.558Z,2.41
2017-12-10T11:51:02.342Z,2.49
2017-12-10T11:53:30.713Z,2.62
2017-12-10T11:55:59.834Z,2.79
2017-12-10T11:58:28.305Z,2.92
2017-12-10T12:00:57.429Z,3.07
2017-12-10T12:03:27.345Z,3.04
2017-12-10T12:05:56.110Z,3.14
2017-12-10T12:08:25.241Z,3.21
2017-12-10T12:10:55.069Z,3.35
2017-12-10T12:13:23.837Z,3.44
2017-12-10T12:15:53.058Z,3.48
2017-12-10T12:18:22.339Z,3.32
2017-12-10T12:20:50.681Z,3.17
2017-12-10T12:23:19.062Z,3.10
2017-12-10T12:25:48.226Z,2.91
2017-12-10T12:28:16.582Z,2.65
2017-12-10T12:30:45.745Z,2.62
2017-12-10T12:33:15.203Z,2.54
2017-12-10T12:35:43.973Z,2.52
2017-12-10T12:38:12.594Z,2.55
2017-12-10T12:40:42.746Z,2.48
2017-12-10T12:43:12.049Z,2.51
2017-12-10T12:45:41.770Z,2.46
2017-12-10T12:48:10.217Z,2.29
2017-12-10T12:50:39.381Z,2.33
2017-12-10T12:53:09.314Z,2.39
2017-12-10T12:55:37.767Z,2.34
2017-12-10T12:58:08.201Z,2.24
2017-12-10T13:00:38.193Z,2.30
2017-12-10T13:03:07.354Z,2.34
2017-12-10T13:05:36.946Z,2.23
2017-12-10T13:08:06.865Z,2.31
2017-12-10T13:10:36.018Z,2.23
2017-12-10T13:13:04.453Z,2.22
2017-12-10T13:15:33.474Z,2.23
2017-12-10T13:18:02.815Z,2.20
2017-12-10T13:20:32.377Z,2.22
2017-12-10T13:23:00.776Z,2.25
2017-12-10T13:25:29.270Z,2.21
2017-12-10T13:27:58.629Z,2.25
2017-12-10T13:30:28.641Z,2.26
2017-12-10T13:32:59.059Z,2.22
2017-12-10T13:35:27.900Z,2.17
2017-12-10T13:37:57.993Z,2.10
2017-12-10T13:40:26.424Z,2.07
2017-12-10T13:42:56.202Z,2.03
2017-12-10T13:45:25.859Z,2.03
2017-12-10T13:47:55.136Z,1.95
2017-12-10T13:50:23.585Z,1.97
2017-12-10T13:52:54.570Z,1.96
2017-12-10T13:55:23.005Z,1.84
2017-12-10T13:57:51.465Z,1.79
2017-12-10T14:00:19.813Z,1.69
2017-12-10T14:02:49.270Z,1.65
2017-12-10T14:05:19.069Z,1.70
2017-12-10T14:07:48.369Z,1.68
2017-12-10T14:10:17.555Z,1.64
2017-12-10T14:12:46.057Z,1.67
2017-12-10T14:15:15.901Z,1.62
2017-12-10T14:17:44.353Z,1.48
2017-12-10T14:20:14.304Z,1.40
2017-12-10T14:22:42.741Z,1.32
2017-12-10T14:25:12.375Z,1.32
2017-12-10T14:27:40.868Z,1.32
2017-12-10T14:30:10.166Z,1.45
2017-12-10T14:32:40.086Z,1.44
2017-12-10T14:35:09.651Z,1.39
2017-12-10T14:37:38.062Z,1.39
2017-12-10T14:40:06.564Z,1.36
2017-12-10T14:42:35.030Z,1.39
2017-12-10T14:45:04.957Z,1.31
2017-12-10T14:47:35.434Z,1.33
2017-12-10T14:50:05.165Z,1.39
2017-12-10T14:52:34.442Z,1.34
2017-12-10T14:55:04.552Z,1.33
2017-12-10T14:57:33.362Z,1.37
2017-12-10T15:00:02.502Z,1.35
2017-12-10T15:02:31.327Z,1.42
2017-12-10T15:05:01.097Z,1.36
2017-12-10T15:07:29.533Z,1.36
2017-12-10T15:10:00.284Z,1.40
2017-12-10T15:12:30.341Z,1.39
2017-12-10T15:15:00.320Z,1.42
2017-12-10T15:17:28.808Z,1.37
2017-12-10T15:19:58.567Z,1.41
2017-12-10T15:22:29.052Z,1.47
2017-12-10T15:24:58.773Z,1.43
2017-12-10T15:27:27.237Z,1.44
2017-12-10T15:29:57.624Z,1.45
2017-12-10T15:32:28.509Z,1.37
2017-12-10T15:34:58.355Z,1.38
2017-12-10T15:37:28.133Z,1.37
2017-12-10T15:39:56.820Z,1.43
2017-12-10T15:42:26.918Z,1.44
2017-12-10T15:44:55.924Z,1.48
2017-12-10T15:47:36.283Z,1.44
2017-12-10T15:50:09.616Z,1.54
2017-12-10T15:52:42.794Z,1.46
2017-12-10T15:55:14.432Z,1.42
2017-12-10T15:57:46.663Z,1.45
2017-12-10T16:00:16.571Z,1.43
2017-12-10T16:02:47.408Z,1.36
2017-12-10T16:05:17.032Z,1.39
2017-12-10T16:07:46.859Z,1.46
2017-12-10T16:10:15.469Z,1.53
2017-12-10T16:12:45.397Z,1.52
2017-12-10T16:15:15.192Z,1.44
2017-12-10T16:17:45.055Z,1.44
2017-12-10T16:20:14.809Z,1.55
2017-12-10T16:22:43.335Z,1.55
2017-12-10T16:25:14.145Z,1.61
2017-12-10T16:27:42.832Z,1.56
2017-12-10T16:30:11.979Z,1.43
2017-12-10T16:32:41.783Z,1.24
2017-12-10T16:35:10.236Z,1.32
2017-12-10T16:37:38.638Z,1.14
2017-12-10T16:40:07.763Z,1.18
2017-12-10T16:42:36.127Z,1.00
2017-12-10T16:45:04.544Z,0.89
2017-12-10T16:47:32.900Z,0.81
2017-12-10T16:50:02.376Z,0.66
2017-12-10T16:52:32.024Z,0.44
2017-12-10T16:55:00.753Z,0.33
2017-12-10T16:57:29.115Z,0.29
2017-12-10T16:59:57.595Z,0.24
2017-12-10T17:02:28.763Z,0.15
2017-12-10T17:04:57.623Z,0.12
2017-12-10T17:07:26.483Z,0.14
2017-12-10T17:09:55.656Z,0.09
2017-12-10T17:12:24.409Z,0.12
2017-12-10T17:14:52.796Z,0.03
2017-12-10T17:17:22.028Z,0.15
2017-12-10T17:19:51.555Z,0.06
2017-12-10T17:22:26.195Z,0.02
2017-12-10T17:24:55.296Z,0.12
2017-12-10T17:27:26.071Z,0.06
2017-12-10T17:29:55.347Z,0.00
2017-12-10T17:32:25.239Z,-0.02
2017-12-10T17:34:55.275Z,-0.02
2017-12-10T17:37:28.333Z,-0.03
2017-12-10T17:39:58.195Z,-0.15
2017-12-10T17:42:27.347Z,-0.04
2017-12-10T17:44:55.914Z,-0.02
2017-12-10T17:47:32.917Z,-0.07
2017-12-10T17:50:02.727Z,-0.05
2017-12-10T17:52:32.649Z,-0.03
2017-12-10T17:55:03.209Z,0.05
2017-12-10T17:57:34.677Z,0.03
2017-12-10T18:00:03.214Z,-0.03
2017-12-10T18:02:33.879Z,0.02
2017-12-10T18:05:04.971Z,-0.48
2017-12-10T18:07:35.702Z,-0.12
2017-12-10T18:10:05.683Z,-0.21
2017-12-10T18:12:34.235Z,-0.09
2017-12-10T18:15:02.736Z,-0.07
2017-12-10T18:17:33.159Z,-0.02
2017-12-10T18:20:02.912Z,-0.06
2017-12-10T18:22:32.679Z,-0.04
2017-12-10T18:25:02.428Z,-0.11
2017-12-10T18:27:33.115Z,-0.09
2017-12-10T18:30:03.115Z,-0.04
2017-12-10T18:32:32.287Z,-0.06
2017-12-10T18:35:00.737Z,0.02
2017-12-10T18:37:29.115Z,0.02
2017-12-10T18:39:57.715Z,0.04
2017-12-10T18:42:27.339Z,-0.04
2017-12-10T18:44:55.723Z,-0.03
2017-12-10T18:47:24.927Z,0.02
2017-12-10T18:49:54.652Z,0.02
2017-12-10T18:52:24.875Z,-0.01
2017-12-10T18:54:55.548Z,-0.01
2017-12-10T18:57:25.559Z,0.02
2017-12-10T18:59:54.772Z,0.08
2017-12-10T19:02:24.811Z,0.02
2017-12-10T19:04:53.378Z,0.06
2017-12-10T19:07:23.499Z,0.10
2017-12-10T19:09:52.231Z,0.05
2017-12-10T19:12:21.751Z,0.13
2017-12-10T19:14:50.753Z,0.12
2017-12-10T19:17:20.880Z,0.14
2017-12-10T19:19:49.254Z,0.18
2017-12-10T19:22:18.946Z,0.21
2017-12-10T19:24:47.715Z,0.21
2017-12-10T19:27:17.648Z,0.26
2017-12-10T19:29:47.590Z,0.27
2017-12-10T19:32:17.588Z,0.26
2017-12-10T19:34:47.519Z,0.26
2017-12-10T19:37:17.238Z,0.29
2017-12-10T19:39:45.954Z,0.29
2017-12-10T19:42:15.109Z,0.33
2017-12-10T19:44:46.463Z,0.35
2017-12-10T19:47:16.394Z,0.35
2017-12-10T19:49:45.963Z,0.37
2017-12-10T19:52:15.898Z,0.43
2017-12-10T19:54:46.766Z,0.39
2017-12-10T19:57:17.187Z,0.45
2017-12-10T19:59:47.627Z,0.49
2017-12-10T20:02:17.963Z,0.53
2017-12-10T20:04:51.414Z,0.58
2017-12-10T20:07:22.337Z,0.56
2017-12-10T20:09:53.767Z,0.58
2017-12-10T20:12:25.439Z,0.60
2017-12-10T20:14:56.637Z,0.63
2017-12-10T20:17:26.316Z,0.66
2017-12-10T20:19:55.499Z,0.67
2017-12-10T20:22:26.799Z,0.70
2017-12-10T20:25:00.207Z,0.74
2017-12-10T20:27:30.107Z,0.74
2017-12-10T20:30:06.854Z,0.77
2017-12-10T20:32:35.876Z,0.76
2017-12-10T20:35:10.699Z,0.82
2017-12-10T20:37:39.616Z,0.81
2017-12-10T20:40:17.044Z,0.85
2017-12-10T20:42:49.166Z,0.90
2017-12-10T20:45:20.990Z,0.94
2017-12-10T20:47:51.027Z,0.94
2017-12-10T20:50:19.370Z,0.89
2017-12-10T20:52:48.169Z,0.91
2017-12-10T20:55:17.314Z,0.93
2017-12-10T20:57:48.193Z,0.98
2017-12-10T21:00:22.631Z,1.00
2017-12-10T21:02:52.118Z,1.01
2017-12-10T21:05:22.777Z,0.99
2017-12-10T21:07:52.655Z,0.98
2017-12-10T21:10:21.431Z,1.01
2017-12-10T21:12:50.414Z,1.03
2017-12-10T21:15:19.197Z,1.10
2017-12-10T21:17:48.393Z,1.14
2017-12-10T21:20:19.001Z,1.13
2017-12-10T21:22:48.905Z,1.10
2017-12-10T21:25:17.620Z,1.13
2017-12-10T21:27:47.133Z,1.18
2017-12-10T21:30:16.827Z,1.26
2017-12-10T21:32:46.569Z,1.30
2017-12-10T21:35:15.659Z,1.30
2017-12-10T21:37:45.673Z,1.31
2017-12-10T21:40:15.886Z,1.33
2017-12-10T21:42:45.558Z,1.44
2017-12-10T21:45:14.281Z,1.43
2017-12-10T21:47:44.868Z,1.47
2017-12-10T21:50:13.957Z,1.49
2017-12-10T21:52:42.745Z,1.52
2017-12-10T21:55:11.504Z,1.49
2017-12-10T21:57:40.221Z,1.44
2017-12-10T22:00:10.085Z,1.46
2017-12-10T22:02:39.597Z,1.49
2017-12-10T22:05:09.361Z,1.45
2017-12-10T22:07:39.036Z,1.47
2017-12-10T22:10:08.772Z,1.47
2017-12-10T22:12:37.529Z,1.41
2017-12-10T22:15:07.252Z,1.43
2017-12-10T22:17:37.092Z,1.41
2017-12-10T22:20:05.450Z,1.36
2017-12-10T22:22:34.645Z,1.45
2017-12-10T22:25:02.984Z,1.54
2017-12-10T22:27:31.760Z,1.54
2017-12-10T22:30:00.465Z,1.51
2017-12-10T22:32:30.195Z,1.48
2017-12-10T22:34:59.888Z,1.46
2017-12-10T22:37:29.017Z,1.44
2017-12-10T22:39:58.728Z,1.47
2017-12-10T22:42:27.092Z,1.43
2017-12-10T22:44:55.456Z,1.38
2017-12-10T22:47:24.190Z,1.40
2017-12-10T22:49:52.952Z,1.29
2017-12-10T22:52:22.637Z,1.22
2017-12-10T22:54:52.361Z,1.15
2017-12-10T22:57:21.083Z,1.04
2017-12-10T22:59:50.600Z,1.07
2017-12-10T23:02:20.420Z,0.96
2017-12-10T23:04:49.984Z,0.93
2017-12-10T23:07:18.729Z,0.92
2017-12-10T23:09:47.829Z,0.91
2017-12-10T23:12:17.567Z,0.95
2017-12-10T23:14:46.299Z,0.95
2017-12-10T23:17:15.948Z,0.95
2017-12-10T23:19:45.660Z,1.00
2017-12-10T23:22:15.160Z,1.15
2017-12-10T23:24:43.964Z,1.36
2017-12-10T23:27:13.680Z,1.51
2017-12-10T23:29:42.783Z,1.68
2017-12-10T23:32:12.304Z,1.76
2017-12-10T23:34:41.060Z,1.85
2017-12-10T23:37:10.524Z,1.95
2017-12-10T23:39:40.044Z,2.06
2017-12-10T23:42:09.500Z,2.15
2017-12-10T23:44:38.272Z,2.17
2017-12-10T23:47:07.041Z,2.20
2017-12-10T23:49:35.764Z,2.24
2017-12-10T23:52:04.872Z,2.33
2017-12-10T23:54:33.649Z,2.38
2017-12-10T23:57:03.124Z,2.39
2017-12-10T23:59:31.916Z,2.47
